createdAt,value
2017-12-01T00:00:40.100Z,-0.01
2017-12-01T00:03:08.620Z,-0.03
2017-12-01T00:05:37.191Z,-0.06
2017-12-01T00:08:05.566Z,-0.21
2017-12-01T00:10:34.036Z,-0.14
2017-12-01T00:13:02.353Z,-0.23
2017-12-01T00:15:30.665Z,-0.24
2017-12-01T00:17:59.115Z,-0.17
2017-12-01T00:20:27.563Z,-0.14
2017-12-01T00:22:56.013Z,-0.19
2017-12-01T00:25:24.527Z,-0.25
2017-12-01T00:27:52.967Z,-0.33
2017-12-01T00:30:21.384Z,-0.21
2017-12-01T00:32:49.764Z,-0.30
2017-12-01T00:35:18.141Z,-0.42
2017-12-01T00:37:46.594Z,-0.51
2017-12-01T00:40:14.989Z,-0.56
2017-12-01T00:42:44.067Z,-0.55
2017-12-01T00:45:12.549Z,-0.41
2017-12-01T00:47:40.953Z,-0.31
2017-12-01T00:50:09.332Z,-0.46
2017-12-01T00:52:37.806Z,-0.56
2017-12-01T00:55:06.285Z,-0.64
2017-12-01T00:57:34.692Z,-0.75
2017-12-01T01:00:04.167Z,-0.78
2017-12-01T01:02:32.757Z,-0.73
2017-12-01T01:05:01.346Z,-0.78
2017-12-01T01:07:29.798Z,-0.67
2017-12-01T01:09:58.295Z,-0.62
2017-12-01T01:12:26.820Z,-0.54
2017-12-01T01:14:55.242Z,-0.38
2017-12-01T01:17:23.715Z,-0.41
2017-12-01T01:19:52.154Z,-0.47
2017-12-01T01:22:20.807Z,-0.44
2017-12-01T01:24:49.394Z,-0.36
2017-12-01T01:30:14.777Z,-0.15
2017-12-01T01:32:43.195Z,-0.10
2017-12-01T01:35:11.657Z,-0.06
2017-12-01T01:37:40.048Z,-0.12
2017-12-01T01:40:08.492Z,-0.07
2017-12-01T01:42:37.660Z,-0.19
2017-12-01T01:45:06.151Z,-0.15
2017-12-01T01:47:34.587Z,-0.21
2017-12-01T01:50:02.972Z,-0.20
2017-12-01T01:52:31.510Z,-0.37
2017-12-01T01:55:00.082Z,-0.39
2017-12-01T01:57:29.320Z,-0.35
2017-12-01T01:59:57.732Z,-0.37
2017-12-01T02:02:26.144Z,-0.58
2017-12-01T02:04:55.272Z,-0.68
2017-12-01T02:07:23.653Z,-0.57
2017-12-01T02:09:52.197Z,-0.45
2017-12-01T02:12:21.558Z,-0.41
2017-12-01T02:14:53.240Z,-0.36
2017-12-01T02:17:21.777Z,-0.44
2017-12-01T02:19:50.218Z,-0.41
2017-12-01T02:22:19.477Z,-0.39
2017-12-01T02:24:47.890Z,-0.43
2017-12-01T02:27:18.466Z,-0.62
2017-12-01T02:29:46.898Z,-0.79
2017-12-01T02:32:15.338Z,-0.63
2017-12-01T02:34:43.857Z,-0.56
2017-12-01T02:37:12.219Z,-0.45
2017-12-01T02:39:40.666Z,-0.53
2017-12-01T02:42:09.046Z,-0.37
2017-12-01T02:44:37.583Z,-0.60
2017-12-01T02:47:06.009Z,-0.73
2017-12-01T02:49:34.532Z,-0.83
2017-12-01T02:52:03.118Z,-1.00
2017-12-01T02:54:31.651Z,-0.99
2017-12-01T02:57:00.136Z,-0.88
2017-12-01T02:59:28.516Z,-1.09
2017-12-01T03:01:56.895Z,-1.01
2017-12-01T03:04:25.412Z,-1.02
2017-12-01T03:06:53.960Z,-1.20
2017-12-01T03:09:22.543Z,-1.10
2017-12-01T03:11:51.161Z,-1.02
2017-12-01T03:14:19.711Z,-0.92
2017-12-01T03:16:49.092Z,-0.89
2017-12-01T03:19:17.862Z,-0.95
2017-12-01T03:21:46.769Z,-0.84
2017-12-01T03:24:15.373Z,-0.95
2017-12-01T03:26:43.906Z,-0.77
2017-12-01T03:29:12.362Z,-0.76
2017-12-01T03:31:40.945Z,-0.98
2017-12-01T03:34:09.563Z,-1.21
2017-12-01T03:36:38.073Z,-1.41
2017-12-01T03:39:06.666Z,-1.35
2017-12-01T03:41:35.281Z,-1.46
2017-12-01T03:44:03.839Z,-1.41
2017-12-01T03:46:32.365Z,-1.32
2017-12-01T03:49:00.797Z,-1.48
2017-12-01T03:51:29.283Z,-1.54
2017-12-01T03:53:57.864Z,-1.49
2017-12-01T03:56:26.428Z,-1.65
2017-12-01T03:58:55.861Z,-1.55
2017-12-01T04:01:24.431Z,-1.41
2017-12-01T04:03:52.909Z,-1.51
2017-12-01T04:06:21.410Z,-1.53
2017-12-01T04:08:49.904Z,-1.46
2017-12-01T04:11:18.974Z,-1.65
2017-12-01T04:13:47.623Z,-1.65
2017-12-01T04:16:16.800Z,-1.66
2017-12-01T04:18:45.236Z,-1.43
2017-12-01T04:21:13.851Z,-1.64
2017-12-01T04:23:42.468Z,-1.62
2017-12-01T04:26:11.695Z,-1.61
2017-12-01T04:28:40.128Z,-1.66
2017-12-01T04:31:08.543Z,-1.72
2017-12-01T04:33:37.801Z,-1.63
2017-12-01T04:36:06.394Z,-1.66
2017-12-01T04:38:34.856Z,-1.56
2017-12-01T04:41:03.373Z,-1.48
2017-12-01T04:43:32.183Z,-1.44
2017-12-01T04:46:03.431Z,-1.57
2017-12-01T04:48:32.069Z,-1.48
2017-12-01T04:51:00.499Z,-1.38
2017-12-01T04:53:29.042Z,-1.46
2017-12-01T04:55:57.628Z,-1.24
2017-12-01T04:58:27.063Z,-1.29
2017-12-01T05:00:55.548Z,-1.34
2017-12-01T05:03:24.094Z,-1.52
2017-12-01T05:05:53.217Z,-1.54
2017-12-01T05:08:22.489Z,-1.41
2017-12-01T05:10:52.364Z,-1.42
2017-12-01T05:13:20.943Z,-1.30
2017-12-01T05:15:49.841Z,-1.22
2017-12-01T05:18:18.309Z,-1.26
2017-12-01T05:20:46.700Z,-1.28
2017-12-01T05:23:16.061Z,-1.23
2017-12-01T05:25:45.288Z,-1.07
2017-12-01T05:28:13.669Z,-1.05
2017-12-01T05:30:42.399Z,-0.83
2017-12-01T05:33:11.519Z,-0.64
2017-12-01T05:35:40.848Z,-0.66
2017-12-01T05:38:09.636Z,-0.54
2017-12-01T05:40:40.609Z,-0.42
2017-12-01T05:43:10.129Z,-0.30
2017-12-01T05:45:41.432Z,-0.30
2017-12-01T05:48:10.645Z,-0.24
2017-12-01T05:50:39.871Z,-0.21
2017-12-01T05:53:08.829Z,-0.10
2017-12-01T05:55:38.961Z,-0.17
2017-12-01T05:58:07.782Z,-0.30
2017-12-01T06:00:36.730Z,-0.29
2017-12-01T06:03:05.079Z,-0.34
2017-12-01T06:05:33.440Z,-0.22
2017-12-01T06:08:01.769Z,-0.05
2017-12-01T06:10:30.141Z,-0.23
2017-12-01T06:12:58.466Z,-0.23
2017-12-01T06:15:26.835Z,-0.27
2017-12-01T06:17:55.203Z,-0.22
2017-12-01T06:20:23.539Z,-0.10
2017-12-01T06:22:51.891Z,-0.04
2017-12-01T06:25:21.009Z,0.00
2017-12-01T06:27:49.349Z,-0.03
2017-12-01T06:30:18.484Z,0.10
2017-12-01T06:32:46.825Z,0.14
2017-12-01T06:35:15.147Z,-0.15
2017-12-01T06:37:43.483Z,-0.03
2017-12-01T06:40:11.792Z,0.16
2017-12-01T06:42:40.131Z,0.30
2017-12-01T06:45:08.456Z,0.34
2017-12-01T06:47:36.805Z,0.32
2017-12-01T06:50:05.920Z,0.33
2017-12-01T06:52:34.248Z,0.34
2017-12-01T06:55:02.599Z,0.54
2017-12-01T06:57:30.936Z,0.30
2017-12-01T07:00:00.031Z,0.55
2017-12-01T07:02:29.151Z,0.66
2017-12-01T07:04:57.471Z,0.50
2017-12-01T07:07:25.812Z,1.57
2017-12-01T07:09:54.172Z,1.37
2017-12-01T07:12:22.529Z,1.09
2017-12-01T07:14:50.852Z,0.83
2017-12-01T07:17:19.195Z,0.45
2017-12-01T07:19:48.275Z,0.46
2017-12-01T07:22:16.647Z,0.62
2017-12-01T07:24:44.991Z,0.80
2017-12-01T07:27:13.314Z,0.75
2017-12-01T07:29:41.651Z,0.76
2017-12-01T07:32:09.967Z,0.94
2017-12-01T07:34:38.311Z,0.97
2017-12-01T07:37:06.631Z,0.90
2017-12-01T07:39:35.719Z,0.84
2017-12-01T07:42:04.049Z,1.13
2017-12-01T07:44:37.869Z,1.10
2017-12-01T07:47:06.183Z,0.98
2017-12-01T07:49:34.499Z,0.95
2017-12-01T07:52:02.848Z,1.46
2017-12-01T07:54:31.935Z,1.20
2017-12-01T07:57:01.024Z,1.35
2017-12-01T07:59:29.373Z,1.27
2017-12-01T08:01:57.696Z,1.42
2017-12-01T08:04:26.806Z,1.28
2017-12-01T08:06:55.176Z,1.32
2017-12-01T08:09:23.509Z,1.43
2017-12-01T08:11:51.832Z,1.41
2017-12-01T08:14:20.946Z,1.59
2017-12-01T08:17:07.182Z,1.79
2017-12-01T08:19:35.533Z,1.69
2017-12-01T08:22:21.407Z,1.61
2017-12-01T08:25:07.723Z,1.55
2017-12-01T08:27:36.052Z,1.89
2017-12-01T08:30:04.379Z,2.08
2017-12-01T08:32:32.736Z,2.20
2017-12-01T08:35:01.062Z,2.12
2017-12-01T08:37:29.410Z,1.95
2017-12-01T08:39:57.762Z,1.91
2017-12-01T08:42:26.091Z,2.07
2017-12-01T08:44:54.413Z,2.04
2017-12-01T08:47:23.536Z,2.04
2017-12-01T08:49:51.856Z,1.99
2017-12-01T08:52:20.170Z,1.92
2017-12-01T08:54:48.503Z,1.92
2017-12-01T08:57:16.820Z,1.94
2017-12-01T08:59:45.940Z,1.90
2017-12-01T09:02:14.261Z,1.94
2017-12-01T09:04:42.615Z,2.16
2017-12-01T09:07:10.951Z,2.22
2017-12-01T09:09:40.032Z,2.46
2017-12-01T09:12:09.163Z,2.58
2017-12-01T09:14:37.500Z,2.48
2017-12-01T09:17:05.829Z,2.40
2017-12-01T09:19:34.158Z,2.40
2017-12-01T09:22:02.475Z,2.51
2017-12-01T09:24:30.843Z,2.72
2017-12-01T09:26:59.178Z,2.81
2017-12-01T09:29:27.523Z,2.85
2017-12-01T09:31:55.867Z,2.64
2017-12-01T09:34:24.972Z,2.91
2017-12-01T09:36:53.328Z,2.94
2017-12-01T09:39:22.424Z,3.08
2017-12-01T09:41:51.505Z,3.14
2017-12-01T09:44:19.859Z,3.19
2017-12-01T09:46:48.171Z,3.19
2017-12-01T09:49:17.256Z,3.07
2017-12-01T09:51:45.591Z,3.06
2017-12-01T09:54:13.933Z,3.32
2017-12-01T09:56:43.031Z,3.18
2017-12-01T09:59:12.128Z,3.17
2017-12-01T10:01:41.236Z,3.21
2017-12-01T10:04:09.564Z,3.24
2017-12-01T10:06:37.899Z,3.30
2017-12-01T10:09:06.244Z,3.26
2017-12-01T10:11:35.386Z,3.40
2017-12-01T10:14:03.699Z,3.38
2017-12-01T10:16:32.058Z,3.26
2017-12-01T10:19:00.401Z,3.39
2017-12-01T10:21:28.734Z,3.29
2017-12-01T10:23:57.124Z,3.31
2017-12-01T10:26:25.462Z,3.56
2017-12-01T10:28:53.808Z,3.66
2017-12-01T10:31:22.151Z,4.01
2017-12-01T10:33:50.525Z,3.76
2017-12-01T10:36:18.827Z,5.25
2017-12-01T10:38:47.961Z,4.45
2017-12-01T10:41:16.280Z,3.76
2017-12-01T10:43:44.594Z,3.28
2017-12-01T10:46:12.936Z,3.52
2017-12-01T10:48:41.267Z,3.52
2017-12-01T10:51:09.614Z,3.47
2017-12-01T10:53:38.712Z,3.49
2017-12-01T10:56:07.145Z,3.59
2017-12-01T10:58:35.479Z,3.40
2017-12-01T11:01:03.803Z,3.62
2017-12-01T11:03:32.169Z,3.47
2017-12-01T11:06:00.506Z,3.50
2017-12-01T11:08:29.600Z,3.47
2017-12-01T11:10:58.707Z,3.73
2017-12-01T11:13:27.051Z,3.96
2017-12-01T11:15:55.404Z,4.14
2017-12-01T11:18:24.499Z,4.49
2017-12-01T11:20:52.840Z,4.36
2017-12-01T11:23:21.191Z,4.38
2017-12-01T11:25:50.296Z,3.92
2017-12-01T11:28:19.385Z,3.97
2017-12-01T11:30:48.779Z,3.95
2017-12-01T11:33:17.099Z,4.21
2017-12-01T11:35:45.432Z,4.28
2017-12-01T11:38:13.803Z,4.33
2017-12-01T11:40:42.132Z,4.42
2017-12-01T11:43:10.452Z,4.25
2017-12-01T11:45:38.811Z,4.28
2017-12-01T11:48:07.160Z,4.42
2017-12-01T11:50:35.481Z,4.62
2017-12-01T11:53:03.809Z,5.00
2017-12-01T11:55:32.156Z,5.19
2017-12-01T11:58:00.480Z,5.17
2017-12-01T12:00:42.071Z,5.90
2017-12-01T12:03:10.409Z,5.78
2017-12-01T12:05:39.518Z,5.50
2017-12-01T12:08:07.853Z,5.70
2017-12-01T12:10:36.208Z,5.74
2017-12-01T12:13:04.537Z,5.55
2017-12-01T12:15:33.628Z,5.52
2017-12-01T12:18:01.975Z,5.39
2017-12-01T12:20:30.325Z,5.06
2017-12-01T12:22:58.677Z,5.30
2017-12-01T12:25:27.788Z,5.15
2017-12-01T12:27:56.132Z,5.01
2017-12-01T12:30:24.493Z,5.12
2017-12-01T12:32:52.816Z,4.90
2017-12-01T12:35:21.142Z,4.98
2017-12-01T12:37:49.491Z,5.15
2017-12-01T12:40:17.809Z,5.37
2017-12-01T12:42:46.136Z,5.40
2017-12-01T12:45:14.526Z,5.38
2017-12-01T12:47:42.876Z,5.17
2017-12-01T12:50:11.996Z,4.90
2017-12-01T12:52:40.320Z,4.81
2017-12-01T12:55:08.644Z,4.89
2017-12-01T12:57:36.995Z,4.71
2017-12-01T13:00:06.086Z,4.65
2017-12-01T13:02:35.186Z,4.61
2017-12-01T13:05:04.312Z,4.46
2017-12-01T13:07:32.628Z,4.47
2017-12-01T13:10:00.975Z,4.47
2017-12-01T13:12:29.420Z,4.40
2017-12-01T13:14:58.539Z,4.41
2017-12-01T13:17:26.865Z,4.48
2017-12-01T13:19:55.220Z,4.67
2017-12-01T13:22:23.535Z,4.53
2017-12-01T13:24:51.872Z,4.32
2017-12-01T13:27:20.196Z,4.55
2017-12-01T13:29:49.311Z,4.59
2017-12-01T13:32:17.668Z,4.60
2017-12-01T13:34:45.994Z,4.50
2017-12-01T13:37:14.335Z,4.43
2017-12-01T13:39:43.481Z,4.25
2017-12-01T13:42:11.798Z,4.34
2017-12-01T13:44:40.148Z,4.50
2017-12-01T13:47:08.506Z,4.48
2017-12-01T13:49:36.847Z,4.35
2017-12-01T13:52:05.930Z,4.40
2017-12-01T13:54:34.259Z,4.45
2017-12-01T13:57:02.592Z,4.56
2017-12-01T13:59:31.730Z,4.46
2017-12-01T14:02:00.055Z,4.55
2017-12-01T14:04:28.427Z,4.46
2017-12-01T14:06:56.747Z,4.42
2017-12-01T14:09:25.089Z,4.47
2017-12-01T14:11:53.455Z,4.36
2017-12-01T14:14:21.773Z,4.30
2017-12-01T14:16:50.091Z,4.44
2017-12-01T14:19:18.428Z,4.27
2017-12-01T14:21:46.759Z,4.11
2017-12-01T14:24:15.120Z,4.13
2017-12-01T14:26:43.455Z,4.01
2017-12-01T14:29:12.539Z,4.08
2017-12-01T14:31:41.638Z,3.99
2017-12-01T14:34:10.727Z,3.77
2017-12-01T14:36:39.840Z,3.80
2017-12-01T14:39:08.151Z,3.69
2017-12-01T14:41:36.490Z,3.64
2017-12-01T14:44:05.635Z,3.55
2017-12-01T14:46:33.956Z,3.51
2017-12-01T14:49:03.068Z,3.58
2017-12-01T14:51:32.175Z,3.59
2017-12-01T14:54:00.490Z,3.65
2017-12-01T14:56:28.844Z,3.84
2017-12-01T14:58:57.187Z,5.03
2017-12-01T15:01:26.292Z,5.58
2017-12-01T15:03:54.623Z,5.61
2017-12-01T15:06:22.948Z,6.00
2017-12-01T15:08:51.305Z,5.44
2017-12-01T15:11:20.483Z,5.03
2017-12-01T15:13:48.823Z,4.80
2017-12-01T15:16:17.159Z,4.44
2017-12-01T15:18:46.239Z,4.45
2017-12-01T15:21:14.585Z,4.27
2017-12-01T15:23:42.911Z,4.12
2017-12-01T15:26:11.995Z,4.13
2017-12-01T15:28:40.359Z,4.15
2017-12-01T15:31:08.695Z,4.22
2017-12-01T15:33:37.012Z,4.13
2017-12-01T15:36:05.364Z,4.07
2017-12-01T15:38:33.712Z,3.97
2017-12-01T15:41:02.048Z,3.93
2017-12-01T15:43:30.392Z,3.96
2017-12-01T15:45:58.737Z,3.89
2017-12-01T15:48:27.839Z,3.82
2017-12-01T15:50:56.936Z,3.81
2017-12-01T15:53:26.063Z,3.80
2017-12-01T15:55:54.392Z,3.78
2017-12-01T15:58:22.714Z,3.73
2017-12-01T16:00:51.084Z,3.68
2017-12-01T16:03:19.413Z,3.69
2017-12-01T16:05:47.754Z,3.74
2017-12-01T16:08:16.093Z,3.79
2017-12-01T16:10:45.209Z,3.73
2017-12-01T16:13:13.524Z,3.77
2017-12-01T16:15:41.880Z,3.71
2017-12-01T16:18:10.200Z,3.74
2017-12-01T16:20:38.521Z,3.68
2017-12-01T16:23:06.863Z,3.64
2017-12-01T16:25:35.189Z,3.69
2017-12-01T16:28:03.535Z,3.61
2017-12-01T16:30:31.896Z,3.67
2017-12-01T16:33:08.393Z,3.67
2017-12-01T16:35:28.568Z,3.69
2017-12-01T16:37:57.669Z,3.77
2017-12-01T16:40:26.788Z,3.71
2017-12-01T16:42:55.109Z,3.88
2017-12-01T16:45:24.253Z,4.02
2017-12-01T16:47:52.621Z,4.04
2017-12-01T16:50:20.907Z,3.81
2017-12-01T16:52:49.239Z,3.85
2017-12-01T16:55:17.599Z,3.87
2017-12-01T16:57:45.957Z,3.79
2017-12-01T17:00:14.273Z,3.56
2017-12-01T17:02:42.586Z,3.46
2017-12-01T17:05:10.920Z,3.48
2017-12-01T17:07:39.548Z,3.39
2017-12-01T17:10:07.895Z,3.35
2017-12-01T17:12:36.225Z,3.31
2017-12-01T17:15:04.583Z,3.29
2017-12-01T17:17:32.907Z,3.22
2017-12-01T17:20:01.227Z,3.27
2017-12-01T17:22:30.348Z,3.30
2017-12-01T17:24:58.667Z,3.21
2017-12-01T17:27:27.004Z,3.03
2017-12-01T17:29:55.356Z,3.08
2017-12-01T17:32:24.434Z,3.03
2017-12-01T17:34:52.753Z,3.03
2017-12-01T17:37:21.088Z,2.93
2017-12-01T17:39:49.422Z,2.84
2017-12-01T17:42:17.778Z,2.71
2017-12-01T17:44:46.100Z,2.64
2017-12-01T17:47:14.419Z,2.61
2017-12-01T17:49:43.524Z,2.60
2017-12-01T17:52:11.881Z,2.48
2017-12-01T17:54:40.964Z,2.43
2017-12-01T17:57:09.294Z,2.30
2017-12-01T17:59:37.640Z,2.24
2017-12-01T18:02:06.735Z,2.14
2017-12-01T18:04:35.842Z,2.07
2017-12-01T18:07:04.944Z,1.95
2017-12-01T18:09:33.297Z,1.88
2017-12-01T18:12:02.377Z,1.85
2017-12-01T18:14:30.724Z,1.75
2017-12-01T18:16:59.059Z,1.72
2017-12-01T18:19:28.175Z,1.71
2017-12-01T18:21:56.539Z,1.66
2017-12-01T18:24:25.628Z,1.62
2017-12-01T18:26:54.715Z,1.56
2017-12-01T18:29:23.819Z,1.53
2017-12-01T18:31:52.930Z,1.44
2017-12-01T18:34:21.326Z,1.36
2017-12-01T18:36:49.650Z,1.26
2017-12-01T18:39:18.026Z,0.81
2017-12-01T18:41:46.383Z,1.11
2017-12-01T18:44:14.699Z,1.06
2017-12-01T18:46:43.786Z,0.95
2017-12-01T18:49:12.941Z,0.78
2017-12-01T18:51:41.247Z,0.73
2017-12-01T18:54:09.568Z,0.73
2017-12-01T18:56:37.908Z,0.76
2017-12-01T18:59:06.225Z,0.74
2017-12-01T19:01:34.548Z,0.77
2017-12-01T19:04:02.903Z,0.75
2017-12-01T19:06:31.263Z,0.74
2017-12-01T19:08:59.607Z,0.77
2017-12-01T19:11:28.712Z,0.72
2017-12-01T19:13:57.788Z,0.85
2017-12-01T19:16:26.144Z,0.98
2017-12-01T19:18:54.459Z,1.04
2017-12-01T19:21:23.543Z,1.02
2017-12-01T19:23:51.896Z,1.17
2017-12-01T19:26:20.211Z,1.22
2017-12-01T19:28:49.299Z,1.23
2017-12-01T19:31:17.643Z,1.28
2017-12-01T19:33:45.975Z,1.27
2017-12-01T19:36:14.303Z,1.46
2017-12-01T19:38:42.658Z,1.51
2017-12-01T19:41:10.981Z,1.48
2017-12-01T19:43:39.417Z,1.41
2017-12-01T19:46:07.759Z,1.43
2017-12-01T19:48:36.874Z,1.53
2017-12-01T19:51:05.227Z,1.49
2017-12-01T19:53:34.315Z,1.43
2017-12-01T19:56:02.647Z,1.26
2017-12-01T19:58:31.003Z,1.21
2017-12-01T20:00:59.332Z,1.29
2017-12-01T20:03:27.739Z,1.46
2017-12-01T20:05:56.858Z,1.58
2017-12-01T20:08:25.176Z,1.57
2017-12-01T20:10:53.501Z,1.67
2017-12-01T20:13:21.835Z,1.79
2017-12-01T20:15:50.171Z,1.89
2017-12-01T20:18:18.524Z,1.88
2017-12-01T20:20:47.615Z,1.97
2017-12-01T20:23:16.712Z,2.02
2017-12-01T20:25:45.829Z,2.12
2017-12-01T20:28:14.165Z,2.07
2017-12-01T20:30:42.488Z,2.21
2017-12-01T20:33:10.839Z,2.22
2017-12-01T20:35:39.931Z,2.19
2017-12-01T20:38:09.071Z,2.22
2017-12-01T20:40:37.413Z,2.14
2017-12-01T20:43:06.521Z,2.08
2017-12-01T20:45:35.676Z,2.02
2017-12-01T20:48:03.967Z,1.93
2017-12-01T20:50:32.298Z,1.93
2017-12-01T20:53:00.626Z,1.85
2017-12-01T20:55:28.959Z,1.79
2017-12-01T20:57:57.304Z,1.70
2017-12-01T21:00:25.635Z,1.75
2017-12-01T21:02:53.964Z,1.64
2017-12-01T21:05:22.315Z,1.72
2017-12-01T21:07:51.404Z,1.65
2017-12-01T21:10:19.767Z,1.77
2017-12-01T21:12:48.086Z,1.84
2017-12-01T21:15:17.164Z,1.99
2017-12-01T21:17:46.310Z,2.04
2017-12-01T21:20:14.631Z,1.97
2017-12-01T21:22:42.956Z,1.97
2017-12-01T21:25:11.295Z,2.01
2017-12-01T21:27:40.392Z,2.08
2017-12-01T21:30:09.499Z,2.00
2017-12-01T21:32:38.583Z,1.88
2017-12-01T21:35:07.691Z,2.01
2017-12-01T21:37:36.780Z,2.06
2017-12-01T21:40:05.883Z,2.13
2017-12-01T21:42:35.010Z,2.24
2017-12-01T21:45:03.335Z,2.28
2017-12-01T21:47:31.703Z,2.37
2017-12-01T21:50:00.020Z,2.46
2017-12-01T21:52:28.367Z,2.27
2017-12-01T21:54:56.679Z,2.15
2017-12-01T21:57:24.987Z,2.16
2017-12-01T21:59:53.323Z,2.14
2017-12-01T22:02:22.432Z,2.27
2017-12-01T22:04:50.792Z,2.17
2017-12-01T22:07:19.894Z,2.25
2017-12-01T22:09:48.227Z,2.39
2017-12-01T22:12:16.577Z,2.42
2017-12-01T22:14:44.891Z,2.38
2017-12-01T22:17:13.208Z,2.32
2017-12-01T22:19:41.560Z,2.27
2017-12-01T22:22:09.892Z,2.33
2017-12-01T22:24:38.227Z,2.43
2017-12-01T22:27:06.548Z,2.45
2017-12-01T22:29:34.877Z,2.47
2017-12-01T22:32:03.227Z,2.42
2017-12-01T22:34:31.596Z,2.42
2017-12-01T22:36:59.920Z,2.28
2017-12-01T22:39:29.027Z,2.25
2017-12-01T22:41:57.361Z,2.29
2017-12-01T22:44:25.708Z,2.33
2017-12-01T22:46:54.060Z,2.43
2017-12-01T22:49:23.143Z,2.61
2017-12-01T22:51:52.227Z,2.68
2017-12-01T22:54:20.572Z,2.66
2017-12-01T22:56:48.891Z,2.71
2017-12-01T22:59:18.003Z,2.78
2017-12-01T23:01:46.363Z,2.70
2017-12-01T23:04:15.492Z,2.70
2017-12-01T23:06:43.861Z,2.73
2017-12-01T23:09:12.184Z,2.69
2017-12-01T23:11:40.523Z,2.68
2017-12-01T23:14:08.885Z,2.75
2017-12-01T23:16:37.971Z,2.76
2017-12-01T23:19:07.057Z,2.84
2017-12-01T23:21:35.391Z,2.82
2017-12-01T23:24:03.711Z,2.81
2017-12-01T23:26:32.061Z,2.75
2017-12-01T23:29:01.149Z,2.86
2017-12-01T23:31:29.489Z,2.84
2017-12-01T23:33:57.803Z,2.92
2017-12-01T23:36:26.131Z,2.69
2017-12-01T23:38:55.279Z,2.66
2017-12-01T23:41:23.593Z,2.65
2017-12-01T23:43:52.680Z,2.68
2017-12-01T23:46:21.036Z,2.66
2017-12-01T23:48:49.368Z,2.70
2017-12-01T23:51:18.480Z,2.83
2017-12-01T23:53:46.805Z,2.81
2017-12-01T23:56:15.115Z,2.74
2017-12-01T23:58:44.231Z,2.81
